createdAt,value
2019-05-13T00:00:26.582Z,3.08
2019-05-13T00:05:30.672Z,4.70
2019-05-13T00:10:34.973Z,3.17
2019-05-13T00:15:37.799Z,3.83
2019-05-13T00:20:40.452Z,9.68
2019-05-13T00:25:44.505Z,4.50
2019-05-13T00:30:47.444Z,8.18
2019-05-13T00:35:50.207Z,5.03
2019-05-13T00:40:54.538Z,5.03
2019-05-13T00:45:57.930Z,3.87
2019-05-13T00:51:00.603Z,4.28
2019-05-13T00:56:05.476Z,3.85
2019-05-13T01:01:08.133Z,3.37
2019-05-13T01:06:10.796Z,6.30
2019-05-13T01:11:15.233Z,4.95
2019-05-13T01:16:17.965Z,5.65
2019-05-13T01:21:20.707Z,4.70
2019-05-13T01:26:23.384Z,5.65
2019-05-13T01:31:26.099Z,5.60
2019-05-13T01:36:28.811Z,3.70
2019-05-13T01:41:33.393Z,4.58
2019-05-13T01:46:35.836Z,4.35
2019-05-13T01:51:38.826Z,5.55
2019-05-13T01:56:41.474Z,4.65
2019-05-13T02:01:44.341Z,7.70
2019-05-13T02:07:06.499Z,2.80
2019-05-13T02:12:13.473Z,7.78
2019-05-13T02:17:16.231Z,3.87
2019-05-13T02:22:19.274Z,4.75
2019-05-13T02:27:21.931Z,3.58
2019-05-13T02:32:24.592Z,4.72
2019-05-13T02:37:29.607Z,6.25
2019-05-13T02:42:32.703Z,6.05
2019-05-13T02:47:35.780Z,5.47
2019-05-13T02:52:38.509Z,3.50
2019-05-13T02:57:43.621Z,4.85
2019-05-13T03:02:45.929Z,6.72
2019-05-13T03:07:48.654Z,9.35
2019-05-13T03:12:53.458Z,7.42
2019-05-13T03:17:55.779Z,6.17
2019-05-13T03:22:58.451Z,8.15
2019-05-13T03:28:03.283Z,6.03
2019-05-13T03:33:10.999Z,7.75
2019-05-13T03:38:12.787Z,8.08
2019-05-13T03:43:15.946Z,6.20
2019-05-13T03:48:23.545Z,8.00
2019-05-13T03:53:44.454Z,7.28
2019-05-13T03:58:47.933Z,5.97
2019-05-13T04:03:52.749Z,7.65
2019-05-13T04:09:14.533Z,6.40
2019-05-13T04:14:02.905Z,7.33
2019-05-13T04:19:04.127Z,10.15
2019-05-13T04:24:07.872Z,8.75
2019-05-13T04:29:13.221Z,7.22
2019-05-13T04:34:15.097Z,6.22
2019-05-13T04:39:38.979Z,7.42
2019-05-13T04:44:23.924Z,7.53
2019-05-13T04:49:27.055Z,14.30
2019-05-13T04:54:33.106Z,12.07
2019-05-13T04:59:40.059Z,8.00
2019-05-13T05:04:57.102Z,11.70
2019-05-13T05:10:30.344Z,9.57
2019-05-13T05:15:52.209Z,9.08
2019-05-13T05:21:01.598Z,6.72
2019-05-13T05:32:01.989Z,11.33
2019-05-13T05:37:13.993Z,7.92
2019-05-13T05:42:18.464Z,10.63
2019-05-13T05:47:21.470Z,6.00
2019-05-13T05:52:27.442Z,12.53
2019-05-13T05:57:31.534Z,12.15
2019-05-13T06:02:35.857Z,15.25
2019-05-13T06:07:42.181Z,12.78
2019-05-13T06:12:45.147Z,11.45
2019-05-13T06:17:47.953Z,14.78
2019-05-13T06:22:51.557Z,10.85
2019-05-13T06:27:54.409Z,8.85
2019-05-13T06:32:57.415Z,17.52
2019-05-13T06:38:01.397Z,15.03
2019-05-13T06:43:04.185Z,18.82
2019-05-13T06:48:07.282Z,10.93
2019-05-13T06:53:12.441Z,15.10
2019-05-13T06:58:14.421Z,13.30
2019-05-13T07:03:17.097Z,16.20
2019-05-13T07:08:22.012Z,15.65
2019-05-13T07:13:24.211Z,13.90
2019-05-13T07:18:26.943Z,10.65
2019-05-13T07:23:31.861Z,11.15
2019-05-13T07:28:34.334Z,14.50
2019-05-13T07:33:37.076Z,16.25
2019-05-13T07:38:41.606Z,14.10
2019-05-13T07:43:44.417Z,17.80
2019-05-13T07:48:52.073Z,13.18
2019-05-13T07:53:54.337Z,6.45
2019-05-13T07:58:57.051Z,15.28
2019-05-13T08:04:01.995Z,10.68
2019-05-13T08:09:25.073Z,9.10
2019-05-13T08:14:27.728Z,11.08
2019-05-13T08:19:32.611Z,11.73
2019-05-13T08:24:34.772Z,5.65
2019-05-13T08:29:37.509Z,12.50
2019-05-13T08:34:41.785Z,9.45
2019-05-13T08:39:44.669Z,6.85
2019-05-13T08:44:48.867Z,7.25
2019-05-13T08:49:52.145Z,6.53
2019-05-13T08:54:54.936Z,5.47
2019-05-13T08:59:57.588Z,5.45
2019-05-13T09:05:13.309Z,6.05
2019-05-13T09:10:16.183Z,9.33
2019-05-13T09:15:18.845Z,3.72
2019-05-13T09:20:22.072Z,6.05
2019-05-13T09:25:24.917Z,5.22
2019-05-13T09:30:27.661Z,7.05
2019-05-13T09:35:31.589Z,6.05
2019-05-13T09:40:34.469Z,5.28
2019-05-13T09:45:37.590Z,3.95
2019-05-13T09:50:42.462Z,7.40
2019-05-13T09:55:44.696Z,4.53
2019-05-13T10:00:47.500Z,4.67
2019-05-13T10:05:51.892Z,7.42
2019-05-13T10:10:54.690Z,6.72
2019-05-13T10:16:00.035Z,7.15
2019-05-13T10:21:03.510Z,6.47
2019-05-13T10:26:08.403Z,8.53
2019-05-13T10:31:12.017Z,4.72
2019-05-13T10:36:15.162Z,4.45
2019-05-13T10:41:17.832Z,3.45
2019-05-13T10:46:22.058Z,6.58
2019-05-13T10:51:25.128Z,3.05
2019-05-13T10:56:27.891Z,4.00
2019-05-13T11:01:32.769Z,3.47
2019-05-13T11:06:35.003Z,4.15
2019-05-13T11:11:38.034Z,7.42
2019-05-13T11:16:42.625Z,6.97
2019-05-13T11:21:50.451Z,5.80
2019-05-13T11:26:52.326Z,7.75
2019-05-13T11:31:53.928Z,6.45
2019-05-13T11:36:56.859Z,1.90
2019-05-13T11:42:02.118Z,4.35
2019-05-13T11:47:03.967Z,2.70
2019-05-13T11:52:06.620Z,4.92
2019-05-13T11:57:12.356Z,2.70
2019-05-13T12:02:14.169Z,5.50
2019-05-13T12:07:16.831Z,6.33
2019-05-13T12:12:21.966Z,5.53
2019-05-13T12:17:24.302Z,2.80
2019-05-13T12:22:27.018Z,5.33
2019-05-13T12:27:31.683Z,6.60
2019-05-13T12:32:34.136Z,4.05
2019-05-13T12:37:56.226Z,3.42
2019-05-13T12:43:01.311Z,3.05
2019-05-13T12:48:03.493Z,5.60
2019-05-13T12:53:06.172Z,5.58
2019-05-13T12:58:08.895Z,5.10
2019-05-13T13:03:13.381Z,3.98
2019-05-13T13:13:26.615Z,3.20
2019-05-13T13:18:25.011Z,3.27
2019-05-13T13:23:27.737Z,2.98
2019-05-13T13:28:34.254Z,3.55
2019-05-13T13:33:35.919Z,4.87
2019-05-13T13:38:42.684Z,5.47
2019-05-13T13:43:43.037Z,2.40
2019-05-13T13:48:45.750Z,3.45
2019-05-13T13:53:48.493Z,2.45
2019-05-13T13:58:51.217Z,4.65
2019-05-13T14:03:55.540Z,2.42
2019-05-13T14:07:13.475Z,2.58
2019-05-13T14:08:58.544Z,2.58
2019-05-13T14:14:02.211Z,3.58
2019-05-13T14:19:05.031Z,2.33
2019-05-13T14:24:07.767Z,3.60
2019-05-13T14:29:12.363Z,3.55
2019-05-13T14:34:14.820Z,2.37
2019-05-13T14:39:18.006Z,3.25
2019-05-13T14:44:21.949Z,3.08
2019-05-13T14:49:25.138Z,6.97
2019-05-13T14:54:27.869Z,3.17
2019-05-13T14:59:31.491Z,6.37
2019-05-13T15:04:34.345Z,3.40
2019-05-13T15:09:37.012Z,4.87
2019-05-13T15:14:42.292Z,4.28
2019-05-13T15:19:44.197Z,9.08
2019-05-13T15:24:46.938Z,4.62
2019-05-13T15:29:51.611Z,4.47
2019-05-13T15:34:54.070Z,5.50
2019-05-13T15:39:56.800Z,3.10
2019-05-13T15:45:01.799Z,5.03
2019-05-13T15:50:05.154Z,5.97
2019-05-13T15:55:07.967Z,4.05
2019-05-13T16:00:12.543Z,4.67
2019-05-13T16:05:15.940Z,6.00
2019-05-13T16:10:18.766Z,4.28
2019-05-13T16:15:21.826Z,4.37
2019-05-13T16:20:24.488Z,4.92
2019-05-13T16:25:27.447Z,3.70
2019-05-13T16:30:32.158Z,4.12
2019-05-13T16:35:34.638Z,6.62
2019-05-13T16:40:37.367Z,4.30
2019-05-13T16:45:42.328Z,4.25
2019-05-13T16:50:44.477Z,4.62
2019-05-13T16:55:47.129Z,2.55
2019-05-13T17:00:52.105Z,3.33
2019-05-13T17:05:54.240Z,2.87
2019-05-13T17:10:56.894Z,2.75
2019-05-13T17:16:01.406Z,4.10
2019-05-13T17:21:03.927Z,2.77
2019-05-13T17:26:06.580Z,5.28
2019-05-13T17:31:11.431Z,6.53
2019-05-13T17:36:13.711Z,3.33
2019-05-13T17:41:16.361Z,6.60
2019-05-13T17:46:19.023Z,7.05
2019-05-13T17:51:22.587Z,4.72
2019-05-13T17:56:25.368Z,6.97
2019-05-13T18:01:28.437Z,3.45
2019-05-13T18:06:31.157Z,5.35
2019-05-13T18:11:33.885Z,5.03
2019-05-13T18:16:36.550Z,4.85
2019-05-13T18:21:39.286Z,3.58
2019-05-13T18:26:42.217Z,4.80
2019-05-13T18:31:44.999Z,4.50
2019-05-13T18:36:48.004Z,4.12
2019-05-13T18:41:50.673Z,7.65
2019-05-13T18:46:54.109Z,5.97
2019-05-13T18:51:56.846Z,6.83
2019-05-13T18:57:01.657Z,7.40
2019-05-13T19:02:04.018Z,6.42
2019-05-13T19:07:07.822Z,7.87
2019-05-13T19:12:11.629Z,7.30
2019-05-13T19:17:14.621Z,6.87
2019-05-13T19:22:17.362Z,6.58
2019-05-13T19:27:21.605Z,4.58
2019-05-13T19:32:24.442Z,4.33
2019-05-13T19:37:27.104Z,6.47
2019-05-13T19:42:31.383Z,11.28
2019-05-13T19:47:34.257Z,5.17
2019-05-13T19:52:36.921Z,7.72
2019-05-13T19:57:39.662Z,10.45
2019-05-13T20:02:42.397Z,5.15
2019-05-13T20:07:45.135Z,10.70
2019-05-13T20:12:47.870Z,7.92
2019-05-13T20:17:52.107Z,11.40
2019-05-13T20:22:54.958Z,8.83
2019-05-13T20:27:57.626Z,8.88
2019-05-13T20:33:02.391Z,9.55
2019-05-13T20:38:04.756Z,6.05
2019-05-13T20:43:07.416Z,6.03
2019-05-13T20:48:11.962Z,5.95
2019-05-13T20:53:14.444Z,7.03
2019-05-13T20:58:17.129Z,7.30
2019-05-13T21:03:21.981Z,6.22
2019-05-13T21:08:24.215Z,5.85
2019-05-13T21:13:26.888Z,6.78
2019-05-13T21:18:31.569Z,5.75
2019-05-13T21:23:33.942Z,15.05
2019-05-13T21:28:36.618Z,7.47
2019-05-13T21:33:39.275Z,7.15
2019-05-13T21:38:42.000Z,6.40
2019-05-13T21:43:44.670Z,10.53
2019-05-13T21:48:47.338Z,6.72
2019-05-13T21:53:51.862Z,6.65
2019-05-13T21:58:54.466Z,6.37
2019-05-13T22:03:57.129Z,3.27
2019-05-13T22:08:59.788Z,7.30
2019-05-13T22:14:02.676Z,6.85
2019-05-13T22:19:05.481Z,6.17
2019-05-13T22:24:08.221Z,10.43
2019-05-13T22:29:10.873Z,6.90
2019-05-13T22:34:13.542Z,6.95
2019-05-13T22:39:16.211Z,7.50
2019-05-13T22:44:18.878Z,4.62
2019-05-13T22:49:22.214Z,4.70
2019-05-13T22:54:25.042Z,7.03
2019-05-13T22:59:27.847Z,7.62
2019-05-13T23:04:31.413Z,5.05
2019-05-13T23:09:34.237Z,5.53
2019-05-13T23:14:36.880Z,5.35
2019-05-13T23:19:41.444Z,4.85
2019-05-13T23:24:44.009Z,4.53
2019-05-13T23:29:46.681Z,4.75
2019-05-13T23:34:51.224Z,5.10
2019-05-13T23:39:54.091Z,5.90
2019-05-13T23:44:56.825Z,6.15
2019-05-13T23:50:01.703Z,6.35
2019-05-13T23:55:06.031Z,6.25
